createdAt,value
2018-04-17T00:01:14.680Z,0
2018-04-17T00:02:36.484Z,0
2018-04-17T00:03:58.609Z,0
2018-04-17T00:05:20.663Z,0
2018-04-17T00:06:42.712Z,0
2018-04-17T00:08:04.532Z,0
2018-04-17T00:09:26.079Z,0
2018-04-17T00:10:47.906Z,0
2018-04-17T00:12:09.437Z,0
2018-04-17T00:13:31.496Z,0
2018-04-17T00:14:53.547Z,0
2018-04-17T00:16:15.354Z,0
2018-04-17T00:17:37.142Z,0
2018-04-17T00:18:58.964Z,0
2018-04-17T00:20:21.011Z,0
2018-04-17T00:21:42.817Z,0
2018-04-17T00:23:04.099Z,0
2018-04-17T00:24:25.899Z,0
2018-04-17T00:25:47.980Z,0
2018-04-17T00:27:09.774Z,0
2018-04-17T00:28:31.828Z,0
2018-04-17T00:29:53.372Z,0
2018-04-17T00:31:15.426Z,0
2018-04-17T00:32:37.568Z,0
2018-04-17T00:33:58.846Z,0
2018-04-17T00:35:20.370Z,0
2018-04-17T00:36:41.900Z,0
2018-04-17T00:38:03.708Z,0
2018-04-17T00:39:25.777Z,0
2018-04-17T00:40:47.886Z,0
2018-04-17T00:42:09.713Z,0
2018-04-17T00:43:31.494Z,0
2018-04-17T00:44:53.040Z,0
2018-04-17T00:46:15.120Z,0
2018-04-17T00:47:36.924Z,0
2018-04-17T00:48:58.467Z,0
2018-04-17T00:50:20.258Z,0
2018-04-17T00:51:41.783Z,0
2018-04-17T00:53:03.839Z,0
2018-04-17T00:54:25.886Z,0
2018-04-17T00:55:47.942Z,0
2018-04-17T00:57:09.219Z,0
2018-04-17T00:58:31.021Z,0
2018-04-17T00:59:52.827Z,0
2018-04-17T01:01:14.614Z,0
2018-04-17T01:02:36.398Z,0
2018-04-17T01:03:58.465Z,0
2018-04-17T01:05:20.265Z,0
2018-04-17T01:06:42.346Z,0
2018-04-17T01:08:04.404Z,0
2018-04-17T01:09:26.211Z,0
2018-04-17T01:10:48.001Z,0
2018-04-17T01:12:10.069Z,0
2018-04-17T01:13:31.896Z,0
2018-04-17T01:14:53.419Z,0
2018-04-17T01:16:15.483Z,0
2018-04-17T01:17:37.558Z,0
2018-04-17T01:18:59.610Z,0
2018-04-17T01:20:21.675Z,0
2018-04-17T01:21:43.232Z,0
2018-04-17T01:23:05.292Z,0
2018-04-17T01:24:27.336Z,0
2018-04-17T01:25:49.147Z,0
2018-04-17T01:27:10.948Z,0
2018-04-17T01:28:32.501Z,0
2018-04-17T01:29:54.552Z,0
2018-04-17T01:31:16.085Z,0
2018-04-17T01:32:38.144Z,0
2018-04-17T01:34:00.191Z,0
2018-04-17T01:35:22.005Z,0
2018-04-17T01:36:44.056Z,0
2018-04-17T01:38:06.117Z,0
2018-04-17T01:39:27.379Z,0
2018-04-17T01:40:49.175Z,0
2018-04-17T01:42:11.239Z,0
2018-04-17T01:43:33.289Z,0
2018-04-17T01:44:55.077Z,0
2018-04-17T01:46:16.955Z,0
2018-04-17T01:47:39.025Z,0
2018-04-17T01:49:01.069Z,0
2018-04-17T01:50:22.871Z,0
2018-04-17T01:51:44.403Z,0
2018-04-17T01:53:06.469Z,0
2018-04-17T01:54:28.002Z,0
2018-04-17T01:55:49.792Z,0
2018-04-17T01:57:11.591Z,0
2018-04-17T01:58:33.384Z,0
2018-04-17T01:59:55.189Z,0
2018-04-17T02:01:17.261Z,0
2018-04-17T02:02:39.050Z,0
2018-04-17T02:04:00.594Z,0
2018-04-17T02:05:22.128Z,0
2018-04-17T02:06:43.915Z,0
2018-04-17T02:08:05.955Z,0
2018-04-17T02:09:27.235Z,0
2018-04-17T02:10:49.305Z,0
2018-04-17T02:12:11.389Z,0
2018-04-17T02:13:33.446Z,0
2018-04-17T02:14:55.224Z,0
2018-04-17T02:16:17.017Z,0
2018-04-17T02:17:39.080Z,0
2018-04-17T02:19:01.138Z,0
2018-04-17T02:20:22.937Z,0
2018-04-17T02:21:44.725Z,0
2018-04-17T02:23:06.268Z,0
2018-04-17T02:24:28.061Z,0
2018-04-17T02:25:50.120Z,0
2018-04-17T02:27:11.646Z,0
2018-04-17T02:28:33.447Z,0
2018-04-17T02:29:55.511Z,0
2018-04-17T02:31:17.580Z,0
2018-04-17T02:32:38.851Z,0
2018-04-17T02:34:00.924Z,0
2018-04-17T02:35:22.747Z,0
2018-04-17T02:36:44.806Z,0
2018-04-17T02:38:06.602Z,0
2018-04-17T02:39:27.881Z,0
2018-04-17T02:40:49.664Z,0
2018-04-17T02:42:11.466Z,0
2018-04-17T02:43:32.985Z,0
2018-04-17T02:44:55.047Z,0
2018-04-17T02:46:16.840Z,0
2018-04-17T02:47:39.083Z,0
2018-04-17T02:49:00.547Z,0
2018-04-17T02:50:22.613Z,0
2018-04-17T02:51:44.678Z,0
2018-04-17T02:53:06.479Z,0
2018-04-17T02:54:28.532Z,0
2018-04-17T02:55:50.344Z,0
2018-04-17T02:57:12.154Z,0
2018-04-17T02:58:33.697Z,0
2018-04-17T02:59:55.483Z,0
2018-04-17T03:01:17.533Z,0
2018-04-17T03:02:39.583Z,0
2018-04-17T03:04:01.379Z,0
2018-04-17T03:05:23.173Z,0
2018-04-17T03:06:44.190Z,0
2018-04-17T03:08:05.983Z,0
2018-04-17T03:09:28.039Z,0
2018-04-17T03:10:49.827Z,0
2018-04-17T03:12:11.345Z,0
2018-04-17T03:13:33.408Z,0
2018-04-17T03:14:55.204Z,0
2018-04-17T03:16:16.742Z,0
2018-04-17T03:17:38.262Z,0
2018-04-17T03:18:59.526Z,0
2018-04-17T03:20:21.568Z,0
2018-04-17T03:21:43.383Z,0
2018-04-17T03:23:04.922Z,0
2018-04-17T03:24:26.995Z,0
2018-04-17T03:25:48.533Z,0
2018-04-17T03:27:10.325Z,0
2018-04-17T03:28:32.115Z,0
2018-04-17T03:29:54.168Z,0
2018-04-17T03:31:15.953Z,0
2018-04-17T03:32:37.767Z,0
2018-04-17T03:33:59.560Z,0
2018-04-17T03:35:21.352Z,0
2018-04-17T03:36:42.894Z,0
2018-04-17T03:38:04.964Z,0
2018-04-17T03:39:26.237Z,0
2018-04-17T03:40:48.302Z,0
2018-04-17T03:42:10.093Z,0
2018-04-17T03:43:32.154Z,0
2018-04-17T03:44:54.200Z,0
2018-04-17T03:46:16.262Z,0
2018-04-17T03:47:38.097Z,0
2018-04-17T03:48:59.928Z,0
2018-04-17T03:50:21.692Z,0
2018-04-17T03:51:43.497Z,0
2018-04-17T03:53:05.290Z,0
2018-04-17T03:54:27.089Z,0
2018-04-17T03:55:48.883Z,0
2018-04-17T03:57:10.430Z,0
2018-04-17T03:58:32.481Z,0
2018-04-17T03:59:54.550Z,0
2018-04-17T04:01:16.604Z,0
2018-04-17T04:02:38.696Z,0
2018-04-17T04:04:00.226Z,0
2018-04-17T04:05:21.766Z,0
2018-04-17T04:06:43.827Z,0
2018-04-17T04:08:05.610Z,0
2018-04-17T04:09:27.398Z,0
2018-04-17T04:10:49.515Z,0
2018-04-17T04:12:11.555Z,0
2018-04-17T04:13:33.352Z,0
2018-04-17T04:14:55.463Z,0
2018-04-17T04:16:17.573Z,0
2018-04-17T04:17:39.628Z,0
2018-04-17T04:19:01.672Z,5
2018-04-17T04:20:23.731Z,5
2018-04-17T04:21:45.529Z,5
2018-04-17T04:23:07.568Z,5
2018-04-17T04:24:29.099Z,10
2018-04-17T04:25:50.898Z,10
2018-04-17T04:27:12.724Z,10
2018-04-17T04:28:34.807Z,15
2018-04-17T04:29:56.596Z,15
2018-04-17T04:31:18.651Z,15
2018-04-17T04:32:40.479Z,15
2018-04-17T04:34:02.282Z,15
2018-04-17T04:35:24.344Z,15
2018-04-17T04:36:45.874Z,15
2018-04-17T04:38:07.700Z,20
2018-04-17T04:39:28.976Z,20
2018-04-17T04:40:50.774Z,20
2018-04-17T04:42:12.820Z,25
2018-04-17T04:43:34.637Z,25
2018-04-17T04:44:56.714Z,25
2018-04-17T04:46:18.770Z,30
2018-04-17T04:47:40.048Z,30
2018-04-17T04:49:02.100Z,35
2018-04-17T04:50:23.903Z,35
2018-04-17T04:51:45.686Z,40
2018-04-17T04:53:07.220Z,40
2018-04-17T04:54:29.016Z,45
2018-04-17T04:55:50.809Z,45
2018-04-17T04:57:12.351Z,50
2018-04-17T04:58:34.152Z,50
2018-04-17T04:59:56.211Z,55
2018-04-17T05:01:18.273Z,55
2018-04-17T05:02:40.348Z,60
2018-04-17T05:04:02.405Z,60
2018-04-17T05:05:24.522Z,60
2018-04-17T05:06:46.579Z,60
2018-04-17T05:08:08.384Z,60
2018-04-17T05:09:30.460Z,65
2018-04-17T05:10:52.290Z,75
2018-04-17T05:12:14.097Z,80
2018-04-17T05:13:36.165Z,80
2018-04-17T05:14:58.227Z,85
2018-04-17T05:16:20.280Z,85
2018-04-17T05:17:42.119Z,85
2018-04-17T05:19:03.925Z,90
2018-04-17T05:20:25.735Z,90
2018-04-17T05:21:47.788Z,95
2018-04-17T05:23:09.588Z,95
2018-04-17T05:24:31.389Z,95
2018-04-17T05:25:53.462Z,100
2018-04-17T05:27:15.517Z,100
2018-04-17T05:28:37.316Z,100
2018-04-17T05:29:59.375Z,105
2018-04-17T05:31:21.436Z,110
2018-04-17T05:32:43.256Z,120
2018-04-17T05:34:05.322Z,130
2018-04-17T05:35:27.397Z,135
2018-04-17T05:36:49.191Z,140
2018-04-17T05:38:10.727Z,145
2018-04-17T05:39:32.535Z,150
2018-04-17T05:40:54.619Z,145
2018-04-17T05:42:16.682Z,145
2018-04-17T05:43:38.758Z,145
2018-04-17T05:45:00.553Z,155
2018-04-17T05:46:22.349Z,160
2018-04-17T05:47:44.421Z,170
2018-04-17T05:49:06.238Z,165
2018-04-17T05:50:27.824Z,170
2018-04-17T05:51:49.359Z,185
2018-04-17T05:53:11.409Z,190
2018-04-17T05:54:32.969Z,210
2018-04-17T05:55:54.841Z,205
2018-04-17T05:57:16.986Z,190
2018-04-17T05:58:39.039Z,190
2018-04-17T06:00:01.111Z,190
2018-04-17T06:01:23.207Z,195
2018-04-17T06:02:45.263Z,210
2018-04-17T06:04:07.061Z,205
2018-04-17T06:05:29.201Z,200
2018-04-17T06:06:50.755Z,340
2018-04-17T06:08:12.308Z,205
2018-04-17T06:09:34.365Z,215
2018-04-17T06:10:56.191Z,210
2018-04-17T06:12:17.998Z,220
2018-04-17T06:13:39.861Z,215
2018-04-17T06:15:01.679Z,210
2018-04-17T06:16:23.219Z,225
2018-04-17T06:17:44.761Z,260
2018-04-17T06:19:06.551Z,300
2018-04-17T06:20:28.106Z,205
2018-04-17T06:21:49.663Z,370
2018-04-17T06:23:11.740Z,300
2018-04-17T06:24:33.541Z,355
2018-04-17T06:25:55.100Z,205
2018-04-17T06:27:17.173Z,200
2018-04-17T06:28:38.712Z,225
2018-04-17T06:30:00.523Z,370
2018-04-17T06:31:22.057Z,365
2018-04-17T06:32:44.160Z,380
2018-04-17T06:34:05.953Z,215
2018-04-17T06:35:27.820Z,380
2018-04-17T06:36:49.646Z,380
2018-04-17T06:38:11.734Z,395
2018-04-17T06:39:33.289Z,400
2018-04-17T06:40:54.834Z,400
2018-04-17T06:42:16.779Z,415
2018-04-17T06:43:38.849Z,405
2018-04-17T06:45:00.663Z,400
2018-04-17T06:46:22.488Z,410
2018-04-17T06:47:44.310Z,410
2018-04-17T06:49:06.186Z,420
2018-04-17T06:50:27.998Z,425
2018-04-17T06:51:50.078Z,420
2018-04-17T06:53:12.259Z,415
2018-04-17T06:54:33.815Z,420
2018-04-17T06:55:55.900Z,420
2018-04-17T06:57:17.975Z,425
2018-04-17T06:58:39.786Z,435
2018-04-17T07:00:01.860Z,440
2018-04-17T07:01:23.433Z,440
2018-04-17T07:02:45.516Z,435
2018-04-17T07:04:07.595Z,435
2018-04-17T07:05:29.740Z,445
2018-04-17T07:06:51.539Z,450
2018-04-17T07:08:13.616Z,440
2018-04-17T07:09:35.443Z,445
2018-04-17T07:10:57.535Z,445
2018-04-17T07:12:19.602Z,450
2018-04-17T07:13:41.421Z,445
2018-04-17T07:15:02.974Z,445
2018-04-17T07:16:24.836Z,445
2018-04-17T07:17:46.904Z,445
2018-04-17T07:19:08.992Z,440
2018-04-17T07:20:30.789Z,445
2018-04-17T07:21:52.873Z,445
2018-04-17T07:23:14.947Z,435
2018-04-17T07:24:37.018Z,435
2018-04-17T07:25:58.835Z,435
2018-04-17T07:27:20.907Z,435
2018-04-17T07:28:42.999Z,450
2018-04-17T07:30:04.811Z,445
2018-04-17T07:31:26.909Z,425
2018-04-17T07:32:48.982Z,420
2018-04-17T07:34:10.810Z,410
2018-04-17T07:35:32.903Z,405
2018-04-17T07:36:54.969Z,405
2018-04-17T07:38:17.059Z,400
2018-04-17T07:39:38.880Z,400
2018-04-17T07:41:00.170Z,400
2018-04-17T07:42:21.730Z,395
2018-04-17T07:43:43.271Z,395
2018-04-17T07:45:05.355Z,390
2018-04-17T07:46:27.181Z,395
2018-04-17T07:47:49.043Z,395
2018-04-17T07:49:10.874Z,395
2018-04-17T07:50:32.934Z,390
2018-04-17T07:51:55.017Z,375
2018-04-17T07:53:16.573Z,330
2018-04-17T07:54:38.389Z,260
2018-04-17T07:55:59.674Z,215
2018-04-17T07:57:21.481Z,200
2018-04-17T07:58:43.575Z,190
2018-04-17T08:00:05.384Z,190
2018-04-17T08:01:27.191Z,190
2018-04-17T08:02:48.750Z,190
2018-04-17T08:04:10.845Z,195
2018-04-17T08:05:32.390Z,195
2018-04-17T08:06:54.215Z,195
2018-04-17T08:08:15.802Z,195
2018-04-17T08:09:37.367Z,195
2018-04-17T08:10:59.451Z,200
2018-04-17T08:12:21.529Z,195
2018-04-17T08:13:43.072Z,195
2018-04-17T08:15:04.625Z,195
2018-04-17T08:16:26.442Z,195
2018-04-17T08:17:48.313Z,195
2018-04-17T08:19:10.612Z,195
2018-04-17T08:20:32.409Z,195
2018-04-17T08:21:54.496Z,200
2018-04-17T08:23:16.311Z,200
2018-04-17T08:24:38.403Z,200
2018-04-17T08:25:59.964Z,205
2018-04-17T08:27:22.044Z,200
2018-04-17T08:28:44.111Z,205
2018-04-17T08:30:05.663Z,205
2018-04-17T08:31:27.722Z,205
2018-04-17T08:32:49.794Z,205
2018-04-17T08:34:11.878Z,205
2018-04-17T08:35:33.682Z,205
2018-04-17T08:36:55.545Z,205
2018-04-17T08:38:17.349Z,205
2018-04-17T08:39:39.427Z,215
2018-04-17T08:41:00.452Z,210
2018-04-17T08:42:22.265Z,210
2018-04-17T08:43:44.321Z,210
2018-04-17T08:45:06.128Z,210
2018-04-17T08:46:27.667Z,205
2018-04-17T08:47:49.742Z,205
2018-04-17T08:49:11.356Z,205
2018-04-17T08:50:33.148Z,210
2018-04-17T08:51:54.692Z,210
2018-04-17T08:53:16.743Z,210
2018-04-17T08:54:38.914Z,210
2018-04-17T08:56:00.986Z,210
2018-04-17T08:57:22.791Z,210
2018-04-17T08:58:44.867Z,205
2018-04-17T09:00:06.421Z,210
2018-04-17T09:01:28.478Z,210
2018-04-17T09:02:49.497Z,205
2018-04-17T09:04:11.594Z,205
2018-04-17T09:05:33.802Z,205
2018-04-17T09:06:55.880Z,200
2018-04-17T09:08:17.690Z,200
2018-04-17T09:09:39.491Z,200
2018-04-17T09:11:01.564Z,200
2018-04-17T09:12:23.383Z,210
2018-04-17T09:13:45.219Z,200
2018-04-17T09:15:07.306Z,200
2018-04-17T09:16:28.859Z,200
2018-04-17T09:17:50.457Z,205
2018-04-17T09:19:12.525Z,205
2018-04-17T09:20:34.595Z,205
2018-04-17T09:21:56.663Z,205
2018-04-17T09:23:18.731Z,205
2018-04-17T09:24:40.814Z,205
2018-04-17T09:26:02.629Z,225
2018-04-17T09:27:24.441Z,240
2018-04-17T09:28:46.530Z,225
2018-04-17T09:30:08.599Z,205
2018-04-17T09:31:30.131Z,200
2018-04-17T09:32:52.222Z,200
2018-04-17T09:34:14.045Z,210
2018-04-17T09:35:36.108Z,210
2018-04-17T09:36:57.664Z,205
2018-04-17T09:38:19.194Z,210
2018-04-17T09:39:40.486Z,205
2018-04-17T09:41:02.042Z,225
2018-04-17T09:42:23.841Z,245
2018-04-17T09:43:45.918Z,245
2018-04-17T09:45:07.742Z,260
2018-04-17T09:46:29.551Z,280
2018-04-17T09:47:51.364Z,285
2018-04-17T09:49:13.418Z,265
2018-04-17T09:50:35.243Z,260
2018-04-17T09:51:57.073Z,240
2018-04-17T09:53:19.142Z,230
2018-04-17T09:54:41.208Z,220
2018-04-17T09:56:03.282Z,225
2018-04-17T09:57:25.411Z,250
2018-04-17T09:58:47.213Z,265
2018-04-17T10:00:09.030Z,265
2018-04-17T10:01:31.098Z,265
2018-04-17T10:02:52.928Z,270
2018-04-17T10:04:14.736Z,270
2018-04-17T10:05:36.799Z,270
2018-04-17T10:06:58.861Z,280
2018-04-17T10:08:20.667Z,265
2018-04-17T10:09:42.741Z,285
2018-04-17T10:11:04.295Z,310
2018-04-17T10:12:26.381Z,315
2018-04-17T10:13:47.655Z,305
2018-04-17T10:15:09.726Z,310
2018-04-17T10:16:31.805Z,295
2018-04-17T10:17:53.353Z,275
2018-04-17T10:19:15.163Z,290
2018-04-17T10:20:37.231Z,295
2018-04-17T10:21:59.047Z,290
2018-04-17T10:23:21.104Z,290
2018-04-17T10:24:42.922Z,290
2018-04-17T10:26:04.745Z,305
2018-04-17T10:27:26.565Z,320
2018-04-17T10:28:48.397Z,290
2018-04-17T10:30:10.487Z,280
2018-04-17T10:31:32.574Z,275
2018-04-17T10:32:54.379Z,275
2018-04-17T10:34:16.457Z,270
2018-04-17T10:35:38.532Z,255
2018-04-17T10:37:00.605Z,250
2018-04-17T10:38:22.669Z,260
2018-04-17T10:39:44.546Z,255
2018-04-17T10:41:06.375Z,265
2018-04-17T10:42:28.170Z,260
2018-04-17T10:43:49.987Z,260
2018-04-17T10:45:11.794Z,260
2018-04-17T10:46:33.681Z,260
2018-04-17T10:47:55.823Z,265
2018-04-17T10:49:17.911Z,270
2018-04-17T10:50:39.735Z,265
2018-04-17T10:52:01.797Z,280
2018-04-17T10:53:23.897Z,290
2018-04-17T10:54:45.737Z,275
2018-04-17T10:56:07.812Z,270
2018-04-17T10:57:29.621Z,270
2018-04-17T10:58:51.182Z,270
2018-04-17T11:00:12.728Z,270
2018-04-17T11:01:34.523Z,250
2018-04-17T11:02:56.330Z,245
2018-04-17T11:04:17.725Z,265
2018-04-17T11:05:39.808Z,280
2018-04-17T11:07:01.609Z,290
2018-04-17T11:08:23.426Z,280
2018-04-17T11:09:45.235Z,275
2018-04-17T11:11:07.303Z,275
2018-04-17T11:12:29.391Z,275
2018-04-17T11:13:51.452Z,280
2018-04-17T11:15:13.021Z,280
2018-04-17T11:16:35.166Z,260
2018-04-17T11:17:57.238Z,265
2018-04-17T11:19:18.784Z,260
2018-04-17T11:20:40.333Z,260
2018-04-17T11:22:02.396Z,275
2018-04-17T11:23:24.605Z,280
2018-04-17T11:24:46.686Z,295
2018-04-17T11:26:08.494Z,290
2018-04-17T11:27:30.307Z,295
2018-04-17T11:28:52.122Z,310
2018-04-17T11:30:14.186Z,295
2018-04-17T11:31:36.018Z,280
2018-04-17T11:32:57.573Z,265
2018-04-17T11:34:19.640Z,255
2018-04-17T11:35:41.714Z,245
2018-04-17T11:37:03.267Z,245
2018-04-17T11:38:25.083Z,250
2018-04-17T11:39:47.158Z,235
2018-04-17T11:41:08.983Z,225
2018-04-17T11:42:30.824Z,225
2018-04-17T11:43:52.650Z,230
2018-04-17T11:45:14.496Z,225
2018-04-17T11:46:36.600Z,230
2018-04-17T11:47:58.413Z,225
2018-04-17T11:49:20.231Z,210
2018-04-17T11:50:42.061Z,205
2018-04-17T11:52:04.177Z,210
2018-04-17T11:53:26.257Z,200
2018-04-17T11:54:48.343Z,195
2018-04-17T11:56:10.427Z,205
2018-04-17T11:57:32.305Z,225
2018-04-17T11:58:54.154Z,230
2018-04-17T12:00:15.976Z,220
2018-04-17T12:01:38.051Z,215
2018-04-17T12:02:59.886Z,200
2018-04-17T12:04:21.971Z,200
2018-04-17T12:05:43.514Z,195
2018-04-17T12:07:05.330Z,185
2018-04-17T12:08:27.400Z,185
2018-04-17T12:09:48.962Z,185
2018-04-17T12:11:11.054Z,185
2018-04-17T12:12:33.131Z,185
2018-04-17T12:13:54.928Z,185
2018-04-17T12:15:17.031Z,185
2018-04-17T12:16:38.842Z,180
2018-04-17T12:18:00.700Z,165
2018-04-17T12:19:22.808Z,170
2018-04-17T12:20:44.707Z,175
2018-04-17T12:22:06.267Z,175
2018-04-17T12:23:28.389Z,190
2018-04-17T12:24:50.208Z,190
2018-04-17T12:26:12.091Z,195
2018-04-17T12:27:34.154Z,195
2018-04-17T12:28:56.004Z,195
2018-04-17T12:30:17.819Z,190
2018-04-17T12:31:39.375Z,190
2018-04-17T12:33:01.442Z,190
2018-04-17T12:34:23.512Z,190
2018-04-17T12:35:45.596Z,185
2018-04-17T12:37:07.469Z,180
2018-04-17T12:38:29.313Z,180
2018-04-17T12:39:51.379Z,185
2018-04-17T12:41:13.202Z,185
2018-04-17T12:42:35.306Z,185
2018-04-17T12:43:57.153Z,190
2018-04-17T12:45:19.255Z,195
2018-04-17T12:46:41.071Z,200
2018-04-17T12:48:03.140Z,190
2018-04-17T12:49:25.298Z,190
2018-04-17T12:50:47.125Z,190
2018-04-17T12:52:09.290Z,185
2018-04-17T12:53:30.855Z,185
2018-04-17T12:54:52.944Z,185
2018-04-17T12:56:15.024Z,180
2018-04-17T12:57:36.577Z,190
2018-04-17T12:58:58.402Z,190
2018-04-17T13:00:20.520Z,180
2018-04-17T13:01:42.638Z,180
2018-04-17T13:03:04.501Z,190
2018-04-17T13:04:26.591Z,195
2018-04-17T13:05:48.674Z,190
2018-04-17T13:07:10.500Z,190
2018-04-17T13:08:32.316Z,185
2018-04-17T13:09:54.417Z,185
2018-04-17T13:11:16.515Z,185
2018-04-17T13:12:38.056Z,180
2018-04-17T13:13:59.885Z,185
2018-04-17T13:15:21.704Z,185
2018-04-17T13:16:43.787Z,180
2018-04-17T13:18:05.885Z,185
2018-04-17T13:19:27.452Z,190
2018-04-17T13:20:49.004Z,200
2018-04-17T13:22:11.078Z,195
2018-04-17T13:23:33.174Z,200
2018-04-17T13:24:55.246Z,205
2018-04-17T13:26:16.810Z,200
2018-04-17T13:27:38.884Z,205
2018-04-17T13:29:00.697Z,210
2018-04-17T13:30:22.774Z,205
2018-04-17T13:31:44.845Z,215
2018-04-17T13:33:06.386Z,210
2018-04-17T13:34:27.948Z,195
2018-04-17T13:35:49.754Z,190
2018-04-17T13:37:11.606Z,190
2018-04-17T13:38:33.768Z,190
2018-04-17T13:39:55.867Z,190
2018-04-17T13:41:17.940Z,190
2018-04-17T13:42:40.203Z,190
2018-04-17T13:44:02.285Z,190
2018-04-17T13:45:24.385Z,190
2018-04-17T13:46:46.215Z,190
2018-04-17T13:48:08.113Z,180
2018-04-17T13:49:30.203Z,170
2018-04-17T13:50:52.300Z,170
2018-04-17T13:52:14.391Z,165
2018-04-17T13:53:35.951Z,170
2018-04-17T13:54:57.778Z,170
2018-04-17T13:56:19.582Z,170
2018-04-17T13:57:41.697Z,170
2018-04-17T13:59:03.802Z,170
2018-04-17T14:00:25.897Z,170
2018-04-17T14:01:47.203Z,160
2018-04-17T14:03:09.295Z,160
2018-04-17T14:04:31.391Z,165
2018-04-17T14:05:53.244Z,180
2018-04-17T14:07:15.352Z,190
2018-04-17T14:08:37.417Z,190
2018-04-17T14:09:59.715Z,190
2018-04-17T14:11:21.519Z,190
2018-04-17T14:12:43.340Z,195
2018-04-17T14:14:05.157Z,190
2018-04-17T14:15:26.717Z,190
2018-04-17T14:16:48.531Z,190
2018-04-17T14:18:10.623Z,190
2018-04-17T14:19:32.431Z,190
2018-04-17T14:20:54.523Z,185
2018-04-17T14:22:16.609Z,190
2018-04-17T14:23:38.463Z,195
2018-04-17T14:25:00.555Z,195
2018-04-17T14:26:22.651Z,195
2018-04-17T14:27:44.760Z,200
2018-04-17T14:29:06.830Z,195
2018-04-17T14:30:28.911Z,195
2018-04-17T14:31:51.007Z,195
2018-04-17T14:33:12.843Z,205
2018-04-17T14:34:34.663Z,200
2018-04-17T14:35:56.742Z,200
2018-04-17T14:37:18.859Z,200
2018-04-17T14:38:40.939Z,205
2018-04-17T14:40:03.022Z,205
2018-04-17T14:41:25.117Z,205
2018-04-17T14:42:47.194Z,205
2018-04-17T14:44:09.284Z,205
2018-04-17T14:45:31.123Z,200
2018-04-17T14:46:53.228Z,200
2018-04-17T14:48:15.361Z,200
2018-04-17T14:49:37.422Z,195
2018-04-17T14:50:59.244Z,190
2018-04-17T14:52:21.341Z,190
2018-04-17T14:53:43.399Z,190
2018-04-17T14:55:05.223Z,195
2018-04-17T14:56:27.333Z,195
2018-04-17T14:57:49.168Z,195
2018-04-17T14:59:11.007Z,195
2018-04-17T15:00:32.862Z,205
2018-04-17T15:01:54.933Z,205
2018-04-17T15:03:16.756Z,205
2018-04-17T15:04:38.844Z,205
2018-04-17T15:06:00.688Z,200
2018-04-17T15:07:22.778Z,195
2018-04-17T15:08:44.666Z,190
2018-04-17T15:10:06.529Z,190
2018-04-17T15:11:28.379Z,185
2018-04-17T15:12:50.239Z,185
2018-04-17T15:14:12.074Z,185
2018-04-17T15:15:33.749Z,180
2018-04-17T15:16:55.557Z,180
2018-04-17T15:18:17.666Z,185
2018-04-17T15:19:39.735Z,185
2018-04-17T15:21:01.833Z,195
2018-04-17T15:22:23.951Z,200
2018-04-17T15:23:46.168Z,205
2018-04-17T15:25:08.255Z,210
2018-04-17T15:26:30.130Z,205
2018-04-17T15:27:52.212Z,200
2018-04-17T15:29:14.297Z,195
2018-04-17T15:30:36.394Z,190
2018-04-17T15:31:58.212Z,180
2018-04-17T15:33:20.304Z,170
2018-04-17T15:34:42.430Z,165
2018-04-17T15:36:03.999Z,160
2018-04-17T15:37:26.139Z,160
2018-04-17T15:38:48.243Z,160
2018-04-17T15:40:10.609Z,155
2018-04-17T15:41:32.175Z,155
2018-04-17T15:42:54.278Z,155
2018-04-17T15:44:16.122Z,155
2018-04-17T15:45:37.965Z,160
2018-04-17T15:46:59.799Z,165
2018-04-17T15:48:21.917Z,165
2018-04-17T15:49:44.040Z,175
2018-04-17T15:51:06.013Z,180
2018-04-17T15:52:28.115Z,185
2018-04-17T15:53:50.220Z,195
2018-04-17T15:55:12.298Z,195
2018-04-17T15:56:34.155Z,200
2018-04-17T15:57:56.261Z,200
2018-04-17T15:59:18.363Z,200
2018-04-17T16:00:40.489Z,205
2018-04-17T16:02:02.345Z,210
2018-04-17T16:03:24.195Z,210
2018-04-17T16:04:46.064Z,205
2018-04-17T16:06:08.173Z,205
2018-04-17T16:07:30.274Z,200
2018-04-17T16:08:52.453Z,200
2018-04-17T16:10:14.659Z,200
2018-04-17T16:11:36.276Z,200
2018-04-17T16:12:58.492Z,195
2018-04-17T16:14:20.575Z,200
2018-04-17T16:15:42.723Z,200
2018-04-17T16:17:04.829Z,200
2018-04-17T16:18:26.942Z,205
2018-04-17T16:19:48.792Z,200
2018-04-17T16:21:10.930Z,200
2018-04-17T16:22:33.054Z,200
2018-04-17T16:23:54.883Z,195
2018-04-17T16:25:16.229Z,190
2018-04-17T16:26:38.090Z,190
2018-04-17T16:28:00.213Z,185
2018-04-17T16:29:22.325Z,185
2018-04-17T16:30:44.173Z,180
2018-04-17T16:32:06.305Z,180
2018-04-17T16:33:28.239Z,175
2018-04-17T16:34:50.346Z,175
2018-04-17T16:36:12.488Z,175
2018-04-17T16:37:34.326Z,170
2018-04-17T16:38:56.445Z,170
2018-04-17T16:40:18.296Z,165
2018-04-17T16:41:40.151Z,160
2018-04-17T16:43:02.283Z,160
2018-04-17T16:44:24.408Z,160
2018-04-17T16:45:46.518Z,155
2018-04-17T16:47:08.630Z,150
2018-04-17T16:48:32.140Z,145
2018-04-17T16:49:54.286Z,135
2018-04-17T16:51:15.895Z,130
2018-04-17T16:52:38.008Z,130
2018-04-17T16:54:00.166Z,125
2018-04-17T16:55:22.300Z,125
2018-04-17T16:56:44.403Z,120
2018-04-17T16:58:06.266Z,115
2018-04-17T16:59:28.383Z,110
2018-04-17T17:00:49.981Z,110
2018-04-17T17:02:12.112Z,110
2018-04-17T17:03:34.227Z,105
2018-04-17T17:04:56.338Z,100
2018-04-17T17:06:18.201Z,95
2018-04-17T17:07:40.319Z,95
2018-04-17T17:09:02.182Z,90
2018-04-17T17:10:24.330Z,90
2018-04-17T17:11:46.165Z,85
2018-04-17T17:13:08.292Z,85
2018-04-17T17:14:30.116Z,80
2018-04-17T17:15:51.966Z,75
2018-04-17T17:17:14.075Z,75
2018-04-17T17:18:36.151Z,70
2018-04-17T17:19:57.991Z,70
2018-04-17T17:21:20.102Z,70
2018-04-17T17:22:41.941Z,65
2018-04-17T17:24:04.048Z,65
2018-04-17T17:25:25.646Z,65
2018-04-17T17:26:47.736Z,60
2018-04-17T17:28:09.575Z,60
2018-04-17T17:29:31.676Z,60
2018-04-17T17:30:53.755Z,55
2018-04-17T17:32:15.325Z,55
2018-04-17T17:33:37.174Z,50
2018-04-17T17:34:59.280Z,50
2018-04-17T17:36:21.361Z,50
2018-04-17T17:37:43.217Z,45
2018-04-17T17:39:05.043Z,45
2018-04-17T17:40:26.625Z,45
2018-04-17T17:41:48.490Z,40
2018-04-17T17:43:10.596Z,40
2018-04-17T17:44:32.791Z,40
2018-04-17T17:45:54.894Z,35
2018-04-17T17:47:16.762Z,35
2018-04-17T17:48:38.900Z,35
2018-04-17T17:50:00.779Z,30
2018-04-17T17:51:22.689Z,30
2018-04-17T17:52:44.817Z,30
2018-04-17T17:54:06.957Z,30
2018-04-17T17:55:29.057Z,30
2018-04-17T17:56:51.200Z,30
2018-04-17T17:58:13.353Z,25
2018-04-17T17:59:35.503Z,25
2018-04-17T18:00:57.390Z,25
2018-04-17T18:02:19.548Z,25
2018-04-17T18:03:41.668Z,25
2018-04-17T18:05:03.962Z,25
2018-04-17T18:06:26.288Z,25
2018-04-17T18:07:48.456Z,25
2018-04-17T18:09:10.642Z,20
2018-04-17T18:10:32.270Z,20
2018-04-17T18:11:54.396Z,20
2018-04-17T18:13:16.250Z,15
2018-04-17T18:14:38.181Z,15
2018-04-17T18:16:00.414Z,15
2018-04-17T18:17:22.599Z,15
2018-04-17T18:18:44.869Z,10
2018-04-17T18:20:07.223Z,10
2018-04-17T18:21:29.140Z,10
2018-04-17T18:22:51.539Z,5
2018-04-17T18:24:13.748Z,5
2018-04-17T18:25:35.912Z,5
2018-04-17T18:26:58.165Z,5
2018-04-17T18:28:20.374Z,5
2018-04-17T18:29:42.571Z,5
2018-04-17T18:31:04.771Z,5
2018-04-17T18:32:27.020Z,0
2018-04-17T18:33:49.235Z,0
2018-04-17T18:35:11.480Z,0
2018-04-17T18:36:33.432Z,0
2018-04-17T18:37:55.601Z,0
2018-04-17T18:39:17.907Z,0
2018-04-17T18:40:40.071Z,0
2018-04-17T18:42:02.322Z,0
2018-04-17T18:43:24.539Z,0
2018-04-17T18:44:46.717Z,0
2018-04-17T18:46:09.147Z,0
2018-04-17T18:47:31.397Z,0
2018-04-17T18:48:53.347Z,0
2018-04-17T18:50:15.763Z,0
2018-04-17T18:51:38.010Z,0
2018-04-17T18:53:00.048Z,0
2018-04-17T18:54:22.016Z,0
2018-04-17T18:55:43.992Z,0
2018-04-17T18:57:06.270Z,0
2018-04-17T18:58:28.239Z,0
2018-04-17T18:59:50.606Z,0
2018-04-17T19:01:12.919Z,0
2018-04-17T19:02:34.902Z,0
2018-04-17T19:03:57.177Z,0
2018-04-17T19:05:19.487Z,0
2018-04-17T19:06:42.124Z,0
2018-04-17T19:08:04.558Z,0
2018-04-17T19:09:26.614Z,0
2018-04-17T19:10:48.910Z,0
2018-04-17T19:12:11.197Z,0
2018-04-17T19:13:33.187Z,0
2018-04-17T19:14:55.483Z,0